Time;durP1;ratioP1;P1;durP2;ratioP2;P2;SDS_P1;SDS_P2;PMS_P1;PMS_P2;Temp;Humidity;BMP_temperature;BMP_pressure;BME280_temperature;BME280_humidity;BME280_pressure;Samples;Min_cycle;Max_cycle;Signal;HPM_P1;HPM_P2
2024/03/30 00:04:43;;;;;;;16.33;3.60;;;;;;;;;;10489785;28;20406;-79
2024/03/30 00:09:48;;;;;;;19.43;3.90;;;;;;;;;;10488946;28;20909;-78
2024/03/30 00:14:52;;;;;;;16.67;3.23;;;;;;;;;;10490447;28;20537;-81
2024/03/30 00:19:54;;;;;;;18.33;3.88;;;;;;;;;;10490559;28;20398;-79
2024/03/30 00:24:57;;;;;;;13.85;2.83;;;;;;;;;;10490933;28;20508;-79
2024/03/30 00:30:00;;;;;;;12.45;2.67;;;;;;;;;;10489692;28;20402;-79
2024/03/30 00:35:03;;;;;;;15.00;2.67;;;;;;;;;;10490960;28;20503;-79
2024/03/30 00:40:06;;;;;;;20.08;4.15;;;;;;;;;;10490076;28;20410;-78
2024/03/30 00:45:11;;;;;;;14.03;3.20;;;;;;;;;;10484405;28;20442;-79
2024/03/30 00:50:13;;;;;;;15.10;3.13;;;;;;;;;;10486170;28;20471;-79
2024/03/30 00:55:16;;;;;;;15.48;3.47;;;;;;;;;;10489386;28;20923;-79
2024/03/30 01:00:19;;;;;;;20.95;3.20;;;;;;;;;;10489928;28;20464;-79
2024/03/30 01:05:22;;;;;;;22.50;3.30;;;;;;;;;;10489114;28;20418;-79
2024/03/30 01:10:24;;;;;;;19.00;3.30;;;;;;;;;;10488852;28;20483;-80
2024/03/30 01:15:29;;;;;;;13.52;3.50;;;;;;;;;;10483797;28;20430;-79
2024/03/30 01:20:32;;;;;;;16.10;3.87;;;;;;;;;;10489671;28;20494;-80
2024/03/30 01:25:36;;;;;;;11.15;3.15;;;;;;;;;;10488323;28;20476;-79
2024/03/30 01:30:40;;;;;;;16.60;3.35;;;;;;;;;;10488903;28;20402;-79
2024/03/30 01:35:43;;;;;;;13.80;2.97;;;;;;;;;;10471507;28;20448;-80
2024/03/30 01:40:45;;;;;;;14.80;3.58;;;;;;;;;;10488883;28;20455;-79
2024/03/30 01:45:49;;;;;;;18.15;3.13;;;;;;;;;;10489375;28;20693;-79
2024/03/30 01:50:53;;;;;;;16.05;3.20;;;;;;;;;;10487132;28;20479;-80
2024/03/30 01:55:56;;;;;;;17.48;3.20;;;;;;;;;;10488009;28;20456;-79
2024/03/30 02:01:00;;;;;;;16.05;3.33;;;;;;;;;;10487743;28;20409;-79
2024/03/30 02:06:03;;;;;;;16.67;3.20;;;;;;;;;;10484432;28;20524;-79
2024/03/30 02:11:06;;;;;;;14.00;2.65;;;;;;;;;;10485002;28;20780;-80
2024/03/30 02:16:10;;;;;;;15.80;2.60;;;;;;;;;;10484685;28;20457;-78
2024/03/30 02:21:12;;;;;;;13.63;2.75;;;;;;;;;;10487202;28;20527;-79
2024/03/30 02:26:16;;;;;;;14.57;3.10;;;;;;;;;;10484363;28;20441;-79
2024/03/30 02:31:19;;;;;;;13.68;2.78;;;;;;;;;;10491844;28;20459;-78
2024/03/30 02:36:21;;;;;;;28.50;3.90;;;;;;;;;;10493435;28;20450;-79
2024/03/30 02:41:25;;;;;;;20.98;4.30;;;;;;;;;;10486400;28;20472;-78
2024/03/30 02:46:28;;;;;;;16.23;3.57;;;;;;;;;;10497410;28;20476;-79
2024/03/30 02:51:30;;;;;;;12.73;2.80;;;;;;;;;;10496316;28;20398;-79
2024/03/30 02:56:34;;;;;;;15.67;3.27;;;;;;;;;;10500383;28;20572;-78
2024/03/30 03:01:37;;;;;;;19.83;3.38;;;;;;;;;;10498740;28;20418;-79
2024/03/30 03:06:40;;;;;;;15.40;2.80;;;;;;;;;;10494116;28;20482;-78
2024/03/30 03:11:44;;;;;;;19.30;3.20;;;;;;;;;;10490468;28;20438;-79
2024/03/30 03:16:46;;;;;;;19.38;4.20;;;;;;;;;;10491316;28;20425;-79
2024/03/30 03:21:49;;;;;;;24.67;3.95;;;;;;;;;;10495506;28;20997;-80
2024/03/30 03:26:53;;;;;;;13.52;3.20;;;;;;;;;;10491480;28;20414;-79
2024/03/30 03:31:55;;;;;;;11.33;3.40;;;;;;;;;;10495066;28;20446;-79
2024/03/30 03:36:58;;;;;;;15.13;3.30;;;;;;;;;;10493402;28;20531;-78
2024/03/30 03:42:01;;;;;;;12.13;3.07;;;;;;;;;;10492612;28;20450;-79
2024/03/30 03:47:04;;;;;;;14.57;3.73;;;;;;;;;;10492818;28;20884;-78
2024/03/30 03:52:06;;;;;;;16.23;3.20;;;;;;;;;;10493137;28;20414;-79
2024/03/30 03:57:10;;;;;;;18.37;3.00;;;;;;;;;;10489585;28;20438;-78
2024/03/30 04:02:13;;;;;;;20.02;3.38;;;;;;;;;;10491924;28;20463;-78
2024/03/30 04:07:15;;;;;;;14.88;3.30;;;;;;;;;;10492278;28;20406;-79
2024/03/30 04:12:19;;;;;;;16.97;3.73;;;;;;;;;;10491031;28;20468;-79
2024/03/30 04:17:21;;;;;;;16.80;3.55;;;;;;;;;;10490889;28;20430;-79
2024/03/30 04:22:24;;;;;;;11.17;2.53;;;;;;;;;;10491290;28;20410;-78
2024/03/30 04:27:27;;;;;;;12.60;2.57;;;;;;;;;;10490060;28;20416;-78
2024/03/30 04:32:30;;;;;;;18.58;3.30;;;;;;;;;;10487478;28;20406;-79
2024/03/30 04:37:33;;;;;;;16.65;3.53;;;;;;;;;;10490624;28;20483;-79
2024/03/30 04:42:37;;;;;;;14.75;3.15;;;;;;;;;;10489657;28;20446;-79
2024/03/30 04:47:39;;;;;;;12.32;3.45;;;;;;;;;;10490591;28;20436;-78
2024/03/30 04:52:41;;;;;;;15.40;2.90;;;;;;;;;;10491036;28;20410;-79
2024/03/30 04:57:45;;;;;;;12.50;2.67;;;;;;;;;;10488833;28;20894;-79
2024/03/30 05:02:47;;;;;;;15.98;3.00;;;;;;;;;;10489258;28;20815;-79
2024/03/30 05:07:50;;;;;;;13.07;2.72;;;;;;;;;;10488291;28;20418;-78
2024/03/30 05:12:54;;;;;;;13.53;3.10;;;;;;;;;;10487364;28;20477;-78
2024/03/30 05:17:56;;;;;;;13.95;3.15;;;;;;;;;;10488989;28;20425;-79
2024/03/30 05:22:59;;;;;;;14.60;2.53;;;;;;;;;;10488969;28;20402;-78
2024/03/30 05:28:04;;;;;;;15.95;3.97;;;;;;;;;;10484626;28;20402;-79
2024/03/30 05:33:08;;;;;;;16.58;2.88;;;;;;;;;;10489237;28;20467;-79
2024/03/30 05:38:10;;;;;;;19.50;3.20;;;;;;;;;;10488186;28;20900;-78
2024/03/30 05:43:14;;;;;;;13.63;2.97;;;;;;;;;;10486459;28;20417;-79
2024/03/30 05:48:17;;;;;;;12.32;2.25;;;;;;;;;;10488175;28;20841;-78
2024/03/30 05:53:19;;;;;;;9.93;2.40;;;;;;;;;;10487511;28;20446;-78
2024/03/30 05:58:23;;;;;;;10.77;2.50;;;;;;;;;;10487386;28;20449;-78
2024/03/30 06:03:25;;;;;;;13.73;3.63;;;;;;;;;;10487869;28;20888;-79
2024/03/30 06:08:28;;;;;;;11.48;2.50;;;;;;;;;;10487119;28;20414;-77
2024/03/30 06:13:32;;;;;;;13.25;2.80;;;;;;;;;;10487392;28;20405;-77
2024/03/30 06:18:34;;;;;;;13.93;2.80;;;;;;;;;;10487531;28;20834;-77
2024/03/30 06:23:37;;;;;;;11.53;2.80;;;;;;;;;;10495545;28;20475;-79
2024/03/30 06:28:42;;;;;;;12.17;3.33;;;;;;;;;;10495365;28;20467;-79
2024/03/30 06:33:45;;;;;;;10.23;2.35;;;;;;;;;;10495273;28;20964;-80
2024/03/30 06:38:48;;;;;;;14.52;2.80;;;;;;;;;;10494296;28;20479;-78
2024/03/30 06:43:51;;;;;;;16.00;2.40;;;;;;;;;;10487485;28;20464;-78
2024/03/30 06:48:54;;;;;;;18.55;2.42;;;;;;;;;;10494828;28;20460;-79
2024/03/30 06:53:56;;;;;;;12.73;3.40;;;;;;;;;;10493778;28;20410;-78
2024/03/30 06:59:00;;;;;;;16.00;3.13;;;;;;;;;;10493676;28;20457;-78
2024/03/30 07:04:03;;;;;;;14.30;2.47;;;;;;;;;;10494194;28;20945;-78
2024/03/30 07:09:06;;;;;;;12.23;2.95;;;;;;;;;;10494049;28;20471;-78
2024/03/30 07:14:09;;;;;;;15.47;3.40;;;;;;;;;;10490622;28;20807;-78
2024/03/30 07:19:12;;;;;;;13.73;3.30;;;;;;;;;;10493569;28;20461;-78
2024/03/30 07:24:14;;;;;;;14.33;3.53;;;;;;;;;;10491689;28;20976;-78
2024/03/30 07:29:18;;;;;;;19.70;3.75;;;;;;;;;;10491295;28;20414;-79
2024/03/30 07:34:20;;;;;;;15.23;2.70;;;;;;;;;;10493511;28;20451;-78
2024/03/30 07:39:23;;;;;;;12.23;2.80;;;;;;;;;;10492207;28;20880;-79
2024/03/30 07:44:29;;;;;;;15.82;2.95;;;;;;;;;;10496922;28;20918;-78
2024/03/30 07:49:32;;;;;;;12.80;2.78;;;;;;;;;;10493162;28;20483;-78
2024/03/30 07:54:34;;;;;;;12.25;3.08;;;;;;;;;;10492200;28;20402;-80
2024/03/30 07:59:38;;;;;;;9.93;2.83;;;;;;;;;;10493170;28;20924;-79
2024/03/30 08:04:40;;;;;;;10.20;2.15;;;;;;;;;;10489477;28;20870;-79
2024/03/30 08:09:43;;;;;;;15.85;3.10;;;;;;;;;;10492125;28;20410;-78
2024/03/30 08:14:46;;;;;;;9.77;2.20;;;;;;;;;;10490808;28;20398;-78
2024/03/30 08:19:49;;;;;;;13.52;2.42;;;;;;;;;;10491438;28;20422;-78
2024/03/30 08:24:51;;;;;;;14.90;3.30;;;;;;;;;;10491306;28;20436;-79
2024/03/30 08:29:55;;;;;;;14.70;2.72;;;;;;;;;;10489168;28;20491;-79
2024/03/30 08:34:57;;;;;;;10.43;2.43;;;;;;;;;;10489029;28;20456;-79
2024/03/30 08:40:00;;;;;;;15.90;2.70;;;;;;;;;;10485046;28;20460;-78
2024/03/30 08:45:04;;;;;;;17.02;2.72;;;;;;;;;;10489961;28;20507;-79
2024/03/30 08:50:07;;;;;;;13.02;2.65;;;;;;;;;;10488222;28;20898;-78
2024/03/30 08:55:10;;;;;;;19.50;2.83;;;;;;;;;;10486780;28;20484;-79
2024/03/30 09:00:14;;;;;;;11.30;2.67;;;;;;;;;;10486686;28;20466;-79
2024/03/30 09:05:16;;;;;;;16.27;2.75;;;;;;;;;;10486627;28;20530;-79
2024/03/30 09:10:20;;;;;;;12.40;3.33;;;;;;;;;;10485314;28;20912;-81
2024/03/30 09:15:24;;;;;;;18.70;2.83;;;;;;;;;;10481811;28;20441;-79
2024/03/30 09:20:26;;;;;;;19.05;2.72;;;;;;;;;;10483314;28;20455;-83
2024/03/30 09:25:29;;;;;;;14.60;2.75;;;;;;;;;;10487506;28;20475;-80
2024/03/30 09:30:33;;;;;;;12.52;2.97;;;;;;;;;;10488794;28;20436;-79
2024/03/30 09:35:39;;;;;;;15.85;2.80;;;;;;;;;;10486809;28;20402;-78
2024/03/30 09:40:49;;;;;;;9.63;2.73;;;;;;;;;;10485879;28;20454;-79
2024/03/30 09:45:54;;;;;;;14.63;2.53;;;;;;;;;;10483184;28;20457;-80
2024/03/30 09:50:57;;;;;;;21.88;2.95;;;;;;;;;;10489264;28;20410;-80
2024/03/30 09:56:01;;;;;;;20.85;3.80;;;;;;;;;;10490367;28;20406;-80
2024/03/30 10:01:06;;;;;;;17.67;3.40;;;;;;;;;;10489127;28;20425;-79
2024/03/30 10:06:17;;;;;;;16.03;3.13;;;;;;;;;;10491920;28;20760;-79
2024/03/30 10:11:21;;;;;;;21.35;3.15;;;;;;;;;;10487114;28;20923;-80
2024/03/30 10:16:25;;;;;;;14.75;3.60;;;;;;;;;;10490845;28;20801;-79
2024/03/30 10:21:28;;;;;;;15.57;2.78;;;;;;;;;;10490437;28;20410;-80
2024/03/30 10:26:36;;;;;;;12.15;2.53;;;;;;;;;;10493283;28;20464;-79
2024/03/30 10:31:41;;;;;;;11.80;2.25;;;;;;;;;;10483626;28;20437;-80
2024/03/30 10:36:46;;;;;;;16.20;3.07;;;;;;;;;;10485429;28;20550;-77
2024/03/30 10:41:48;;;;;;;12.37;2.27;;;;;;;;;;10486648;28;20467;-80
2024/03/30 10:46:52;;;;;;;15.55;3.72;;;;;;;;;;10486502;28;20450;-79
2024/03/30 10:51:55;;;;;;;14.03;2.43;;;;;;;;;;10486351;28;20401;-79
2024/03/30 10:56:59;;;;;;;12.85;2.80;;;;;;;;;;10488170;28;20499;-79
2024/03/30 11:02:04;;;;;;;13.82;2.75;;;;;;;;;;10482183;28;20445;-79
2024/03/30 11:07:06;;;;;;;16.80;2.70;;;;;;;;;;10485829;28;20491;-80
2024/03/30 11:12:10;;;;;;;20.50;3.60;;;;;;;;;;10494501;28;20479;-79
2024/03/30 11:17:22;;;;;;;14.43;3.50;;;;;;;;;;10489871;28;20450;-79
2024/03/30 11:22:33;;;;;;;15.20;2.70;;;;;;;;;;10492676;28;20435;-79
2024/03/30 11:27:41;;;;;;;18.65;2.95;;;;;;;;;;10486978;28;20499;-75
2024/03/30 11:32:53;;;;;;;14.37;2.70;;;;;;;;;;10488519;28;20516;-79
2024/03/30 11:38:00;;;;;;;17.02;2.72;;;;;;;;;;10490492;28;20454;-79
2024/03/30 11:43:16;;;;;;;19.08;3.65;;;;;;;;;;10488997;28;20820;-81
2024/03/30 11:48:21;;;;;;;22.07;3.40;;;;;;;;;;10485708;28;21008;-79
2024/03/30 11:53:25;;;;;;;21.00;3.37;;;;;;;;;;10486524;28;20497;-80
2024/03/30 11:58:31;;;;;;;17.48;3.42;;;;;;;;;;10485685;28;20895;-77
2024/03/30 12:03:36;;;;;;;16.30;2.70;;;;;;;;;;10477742;28;20446;-80
2024/03/30 12:08:41;;;;;;;20.70;3.70;;;;;;;;;;10478609;28;20445;-80
2024/03/30 12:13:44;;;;;;;15.15;2.92;;;;;;;;;;10482355;28;20593;-78
2024/03/30 12:18:49;;;;;;;17.02;3.55;;;;;;;;;;10481232;28;20454;-80
2024/03/30 12:23:53;;;;;;;17.45;2.83;;;;;;;;;;10482151;28;20411;-80
2024/03/30 12:29:02;;;;;;;15.33;2.73;;;;;;;;;;10478900;28;20990;-80
2024/03/30 12:34:08;;;;;;;19.08;3.30;;;;;;;;;;10482616;28;20464;-79
2024/03/30 12:39:11;;;;;;;14.20;3.35;;;;;;;;;;10474190;28;20458;-80
2024/03/30 12:44:14;;;;;;;22.10;3.85;;;;;;;;;;10478401;28;20522;-79
2024/03/30 12:49:19;;;;;;;20.25;3.25;;;;;;;;;;10477330;28;20523;-77
2024/03/30 12:54:22;;;;;;;21.75;3.47;;;;;;;;;;10479563;28;20546;-80
2024/03/30 12:59:25;;;;;;;20.63;3.67;;;;;;;;;;10462645;28;20787;-80
2024/03/30 13:04:32;;;;;;;22.83;4.20;;;;;;;;;;10477753;28;20442;-79
2024/03/30 13:09:35;;;;;;;22.80;4.22;;;;;;;;;;10476278;28;20437;-80
2024/03/30 13:14:38;;;;;;;26.03;3.87;;;;;;;;;;10468973;28;20453;-80
2024/03/30 13:19:42;;;;;;;23.48;4.03;;;;;;;;;;10473709;28;21360;-77
2024/03/30 13:24:45;;;;;;;25.50;4.43;;;;;;;;;;10473790;28;20446;-77
2024/03/30 13:29:48;;;;;;;20.63;4.35;;;;;;;;;;10470779;28;20703;-78
2024/03/30 13:34:52;;;;;;;31.63;4.85;;;;;;;;;;10475363;28;20487;-77
2024/03/30 13:39:55;;;;;;;29.42;4.65;;;;;;;;;;10471643;28;20543;-77
2024/03/30 13:44:58;;;;;;;28.17;5.65;;;;;;;;;;10478607;28;21078;-77
2024/03/30 13:50:03;;;;;;;31.20;5.43;;;;;;;;;;10476482;28;20445;-78
2024/03/30 13:55:06;;;;;;;31.63;5.07;;;;;;;;;;10472068;28;22069;-78
2024/03/30 14:00:10;;;;;;;35.42;5.78;;;;;;;;;;10479679;28;20507;-76
2024/03/30 14:05:14;;;;;;;44.00;5.80;;;;;;;;;;10478036;28;20506;-75
2024/03/30 14:10:16;;;;;;;32.13;4.70;;;;;;;;;;10477896;28;20475;-73
2024/03/30 14:15:18;;;;;;;33.03;5.25;;;;;;;;;;10477690;28;20459;-80
2024/03/30 14:20:23;;;;;;;32.90;4.78;;;;;;;;;;10477947;28;20457;-78
2024/03/30 14:25:27;;;;;;;32.53;5.00;;;;;;;;;;10474758;28;20480;-79
2024/03/30 14:30:29;;;;;;;37.45;5.80;;;;;;;;;;10480601;28;20430;-76
2024/03/30 14:35:33;;;;;;;46.03;6.27;;;;;;;;;;10476471;28;20425;-77
2024/03/30 14:40:35;;;;;;;37.80;6.65;;;;;;;;;;10472095;28;20549;-76
2024/03/30 14:45:37;;;;;;;35.90;5.90;;;;;;;;;;10486115;28;20896;-77
2024/03/30 14:50:41;;;;;;;37.63;5.70;;;;;;;;;;10484226;28;20438;-76
2024/03/30 14:55:44;;;;;;;43.80;7.00;;;;;;;;;;10480294;28;20450;-76
2024/03/30 15:00:47;;;;;;;32.90;5.65;;;;;;;;;;10482420;28;20454;-76
2024/03/30 15:05:50;;;;;;;41.93;6.27;;;;;;;;;;10475329;28;20489;-77
2024/03/30 15:10:53;;;;;;;36.28;5.18;;;;;;;;;;10473279;28;20454;-76
2024/03/30 15:15:55;;;;;;;36.67;6.97;;;;;;;;;;10485701;28;20449;-77
2024/03/30 15:20:59;;;;;;;35.05;5.72;;;;;;;;;;10488241;28;20518;-76
2024/03/30 15:26:01;;;;;;;43.22;5.80;;;;;;;;;;10491147;28;20436;-78
2024/03/30 15:36:26;;;;;;;40.00;5.37;;;;;;;;;;10490072;28;20495;-77
2024/03/30 15:41:28;;;;;;;39.80;5.97;;;;;;;;;;10488140;28;20457;-80
2024/03/30 15:46:31;;;;;;;44.08;6.15;;;;;;;;;;10489152;28;20441;-82
2024/03/30 15:51:34;;;;;;;33.63;4.88;;;;;;;;;;10483754;28;20487;-78
2024/03/30 15:56:37;;;;;;;40.30;5.57;;;;;;;;;;10487143;28;20518;-78
2024/03/30 16:01:39;;;;;;;34.97;5.97;;;;;;;;;;10486835;28;20868;-77
2024/03/30 16:06:43;;;;;;;39.03;5.33;;;;;;;;;;10485770;28;20441;-80
2024/03/30 16:11:45;;;;;;;40.95;6.68;;;;;;;;;;10480688;28;20445;-79
2024/03/30 16:16:48;;;;;;;39.17;5.97;;;;;;;;;;10479822;28;20906;-79
2024/03/30 16:21:51;;;;;;;37.78;5.88;;;;;;;;;;10478727;28;20555;-79
2024/03/30 16:26:54;;;;;;;50.70;6.23;;;;;;;;;;10482683;28;20526;-81
2024/03/30 16:31:56;;;;;;;47.85;5.70;;;;;;;;;;10478989;28;20438;-80
2024/03/30 16:37:00;;;;;;;45.47;7.72;;;;;;;;;;10479961;28;20505;-79
2024/03/30 16:42:02;;;;;;;56.25;8.50;;;;;;;;;;10473919;28;21119;-79
2024/03/30 16:47:05;;;;;;;44.35;6.25;;;;;;;;;;10476879;28;20526;-79
2024/03/30 16:52:09;;;;;;;43.53;6.60;;;;;;;;;;10458019;28;20450;-78
2024/03/30 16:57:12;;;;;;;39.40;7.28;;;;;;;;;;10478284;28;20450;-79
2024/03/30 17:02:14;;;;;;;55.27;8.83;;;;;;;;;;10471505;28;20445;-76
2024/03/30 17:07:18;;;;;;;48.00;7.82;;;;;;;;;;10476780;28;20522;-79
2024/03/30 17:12:21;;;;;;;51.00;8.87;;;;;;;;;;10478353;28;20449;-79
2024/03/30 17:17:23;;;;;;;48.63;7.03;;;;;;;;;;10478909;28;20518;-80
2024/03/30 17:22:27;;;;;;;42.03;6.87;;;;;;;;;;10482350;28;20527;-77
2024/03/30 17:27:30;;;;;;;50.20;7.17;;;;;;;;;;10474342;28;20446;-79
2024/03/30 17:32:33;;;;;;;40.83;5.63;;;;;;;;;;10476421;28;20830;-76
2024/03/30 17:37:37;;;;;;;43.50;6.65;;;;;;;;;;10474634;28;20429;-78
2024/03/30 17:42:39;;;;;;;35.80;6.17;;;;;;;;;;10477430;28;20462;-76
2024/03/30 17:47:41;;;;;;;54.42;7.63;;;;;;;;;;10479905;28;20449;-80
2024/03/30 17:52:45;;;;;;;47.65;7.40;;;;;;;;;;10480481;28;20449;-77
2024/03/30 17:57:47;;;;;;;47.75;7.70;;;;;;;;;;10474920;28;20445;-76
2024/03/30 18:02:50;;;;;;;47.80;6.70;;;;;;;;;;10481222;28;20533;-80
2024/03/30 18:07:54;;;;;;;49.37;6.57;;;;;;;;;;10482221;28;20445;-78
2024/03/30 18:12:56;;;;;;;43.80;6.45;;;;;;;;;;10479947;28;20453;-79
2024/03/30 18:17:58;;;;;;;48.77;7.27;;;;;;;;;;10495281;28;20482;-78
2024/03/30 18:23:02;;;;;;;50.30;7.07;;;;;;;;;;10489274;28;20453;-79
2024/03/30 18:28:06;;;;;;;40.80;6.97;;;;;;;;;;10483659;28;20852;-79
2024/03/30 18:33:12;;;;;;;42.40;8.43;;;;;;;;;;10483714;28;20441;-79
2024/03/30 18:38:15;;;;;;;48.15;7.05;;;;;;;;;;10483401;28;20507;-79
2024/03/30 18:43:18;;;;;;;36.22;7.18;;;;;;;;;;10484585;28;20500;-79
2024/03/30 18:48:20;;;;;;;38.93;5.73;;;;;;;;;;10486689;28;20752;-80
2024/03/30 18:53:24;;;;;;;45.20;7.80;;;;;;;;;;10483610;28;20892;-80
2024/03/30 18:58:26;;;;;;;41.10;6.23;;;;;;;;;;10485646;28;20441;-80
2024/03/30 19:03:29;;;;;;;38.03;5.88;;;;;;;;;;10483923;28;20821;-81
2024/03/30 19:08:32;;;;;;;43.50;5.93;;;;;;;;;;10484655;28;21002;-81
2024/03/30 19:13:35;;;;;;;37.83;5.82;;;;;;;;;;10488589;28;20457;-80
2024/03/30 19:18:37;;;;;;;33.78;4.88;;;;;;;;;;10485459;28;20849;-81
2024/03/30 19:23:42;;;;;;;41.22;5.72;;;;;;;;;;10480540;28;20453;-81
2024/03/30 19:28:47;;;;;;;34.13;4.83;;;;;;;;;;10476450;28;20598;-81
2024/03/30 19:33:50;;;;;;;32.63;5.10;;;;;;;;;;10482714;28;20932;-80
2024/03/30 19:38:54;;;;;;;35.57;4.93;;;;;;;;;;10477028;28;20918;-79
2024/03/30 19:43:56;;;;;;;29.00;4.30;;;;;;;;;;10474474;28;21641;-80
2024/03/30 19:48:59;;;;;;;31.77;5.53;;;;;;;;;;10481606;28;20688;-81
2024/03/30 19:54:03;;;;;;;31.60;5.67;;;;;;;;;;10486032;28;20425;-81
2024/03/30 19:59:07;;;;;;;38.65;5.53;;;;;;;;;;10485652;28;20890;-81
2024/03/30 20:04:10;;;;;;;30.33;5.40;;;;;;;;;;10483041;28;20425;-81
2024/03/30 20:09:14;;;;;;;32.03;5.80;;;;;;;;;;10486490;28;20453;-81
2024/03/30 20:14:16;;;;;;;41.95;5.32;;;;;;;;;;10489203;28;20957;-80
2024/03/30 20:19:19;;;;;;;34.55;5.22;;;;;;;;;;10491226;28;20418;-81
2024/03/30 20:24:23;;;;;;;37.78;6.68;;;;;;;;;;10492027;28;20941;-80
2024/03/30 20:29:25;;;;;;;44.70;6.30;;;;;;;;;;10490618;28;20414;-81
2024/03/30 20:34:29;;;;;;;38.53;5.93;;;;;;;;;;10492253;28;20402;-81
2024/03/30 20:39:33;;;;;;;38.47;6.30;;;;;;;;;;10491827;28;20418;-80
2024/03/30 20:44:35;;;;;;;36.92;6.05;;;;;;;;;;10492031;28;20934;-81
2024/03/30 20:49:38;;;;;;;35.85;7.63;;;;;;;;;;10491002;28;20406;-81
2024/03/30 20:54:47;;;;;;;31.02;6.10;;;;;;;;;;10489108;28;20448;-81
2024/03/30 20:59:49;;;;;;;29.20;5.03;;;;;;;;;;10488923;28;20540;-80
2024/03/30 21:04:51;;;;;;;26.75;5.68;;;;;;;;;;10491361;28;20460;-81
2024/03/30 21:09:55;;;;;;;30.08;4.35;;;;;;;;;;10490450;28;20768;-80
2024/03/30 21:14:58;;;;;;;40.42;5.07;;;;;;;;;;10489026;28;20950;-81
2024/03/30 21:20:00;;;;;;;32.95;5.05;;;;;;;;;;10490426;28;20827;-81
2024/03/30 21:25:05;;;;;;;23.77;4.55;;;;;;;;;;10488977;28;20456;-81
2024/03/30 21:30:09;;;;;;;31.40;6.07;;;;;;;;;;10489279;28;20398;-81
2024/03/30 21:35:12;;;;;;;36.47;6.07;;;;;;;;;;10489561;28;20410;-80
2024/03/30 21:40:16;;;;;;;34.38;6.63;;;;;;;;;;10487794;28;20457;-81
2024/03/30 21:45:18;;;;;;;26.55;4.60;;;;;;;;;;10486265;28;20410;-81
2024/03/30 21:50:20;;;;;;;31.60;5.03;;;;;;;;;;10488508;28;20402;-80
2024/03/30 21:55:24;;;;;;;21.50;3.67;;;;;;;;;;10488168;28;20402;-80
2024/03/30 22:00:27;;;;;;;27.23;4.30;;;;;;;;;;10475848;22;20449;-80
2024/03/30 22:05:29;;;;;;;32.57;4.77;;;;;;;;;;10432270;28;20405;-81
2024/03/30 22:10:36;;;;;;;25.00;4.03;;;;;;;;;;10431876;28;20417;-81
2024/03/30 22:15:39;;;;;;;25.23;4.25;;;;;;;;;;10432268;28;20405;-81
2024/03/30 22:20:42;;;;;;;29.15;4.25;;;;;;;;;;10431720;28;20420;-80
2024/03/30 22:25:46;;;;;;;30.77;4.68;;;;;;;;;;10431624;28;20461;-81
2024/03/30 22:30:48;;;;;;;28.63;4.70;;;;;;;;;;10427769;28;20408;-81
2024/03/30 22:35:51;;;;;;;27.17;4.47;;;;;;;;;;10418426;28;20464;-80
2024/03/30 22:41:01;;;;;;;21.98;3.83;;;;;;;;;;10405140;28;20572;-81
2024/03/30 22:46:04;;;;;;;20.95;3.08;;;;;;;;;;10404520;28;20485;-81
2024/03/30 22:51:07;;;;;;;20.70;3.55;;;;;;;;;;10415412;28;20514;-80
2024/03/30 22:56:11;;;;;;;26.30;4.73;;;;;;;;;;10411772;28;20451;-81
2024/03/30 23:01:14;;;;;;;22.83;3.90;;;;;;;;;;10412205;28;20453;-81
2024/03/30 23:06:16;;;;;;;23.30;3.92;;;;;;;;;;10413370;28;20449;-82
2024/03/30 23:11:20;;;;;;;25.53;4.23;;;;;;;;;;10412157;28;20448;-82
2024/03/30 23:16:22;;;;;;;25.97;3.90;;;;;;;;;;10417701;28;20490;-81
2024/03/30 23:21:24;;;;;;;25.95;3.88;;;;;;;;;;10407124;28;21010;-81
2024/03/30 23:26:28;;;;;;;21.25;3.95;;;;;;;;;;10414284;28;20491;-82
2024/03/30 23:31:31;;;;;;;25.25;4.00;;;;;;;;;;10418872;28;20433;-81
2024/03/30 23:36:35;;;;;;;19.88;3.05;;;;;;;;;;10409150;28;20563;-81
2024/03/30 23:41:39;;;;;;;26.25;3.28;;;;;;;;;;10417542;28;20465;-82
2024/03/30 23:46:41;;;;;;;23.25;3.53;;;;;;;;;;10411494;28;20445;-81
2024/03/30 23:51:44;;;;;;;20.92;3.85;;;;;;;;;;10414548;28;20485;-82
2024/03/30 23:56:48;;;;;;;24.50;3.30;;;;;;;;;;10421479;28;20469;-81
